Time;durP1;ratioP1;P1;durP2;ratioP2;P2;SDS_P1;SDS_P2;PMS_P1;PMS_P2;Temp;Humidity;BMP_temperature;BMP_pressure;BME280_temperature;BME280_humidity;BME280_pressure;Samples;Min_cycle;Max_cycle;Signal;HPM_P1;HPM_P2
2022/10/22 00:13:00;;;;;;;13.33;8.00;;;;;;;8.44;77.80;99872.25;30735748;28;96540;-64
2022/10/22 00:28:01;;;;;;;12.30;8.15;;;;;;;8.43;78.01;99870.56;30732729;28;106785;-64
2022/10/22 00:43:01;;;;;;;12.03;8.40;;;;;;;8.81;78.15;99833.78;30740013;28;96596;-62
2022/10/22 00:58:02;;;;;;;12.70;8.30;;;;;;;8.95;77.67;99821.63;30753723;28;96743;-62
2022/10/22 01:13:16;;;;;;;13.48;8.70;;;;;;;8.84;77.40;99798.09;30753095;28;96782;-62
2022/10/22 01:28:37;;;;;;;;;;;;;;;8.54;77.11;99848.22;30751858;28;96823;-63
2022/10/22 01:43:37;;;;;;;13.33;7.63;;;;;;;8.67;77.09;99800.75;30750612;28;96766;-63
2022/10/22 01:58:52;;;;;;;13.45;8.88;;;;;;;8.78;77.83;99810.22;30747064;28;119335;-62
2022/10/22 02:13:57;;;;;;;11.80;7.57;;;;;;;8.87;77.44;99792.44;30747244;28;96649;-64
2022/10/22 02:29:24;;;;;;;17.03;8.20;;;;;;;8.84;77.32;99792.78;30745697;28;96685;-63
2022/10/22 02:44:24;;;;;;;12.67;8.20;;;;;;;8.44;77.25;99798.72;30743432;28;97409;-63
2022/10/22 02:59:24;;;;;;;15.35;8.38;;;;;;;8.26;77.70;99795.44;30742760;28;96740;-62
2022/10/22 03:14:24;;;;;;;11.90;7.45;;;;;;;8.57;78.37;99800.09;30739352;28;112757;-64
2022/10/22 03:29:26;;;;;;;11.35;7.68;;;;;;;8.60;77.80;99784.66;30739005;28;97596;-62
2022/10/22 03:44:27;;;;;;;13.43;7.57;;;;;;;8.54;77.84;99795.13;30735051;28;96758;-62
2022/10/22 03:59:27;;;;;;;13.02;8.27;;;;;;;8.70;78.54;99800.41;30735842;28;97138;-62
2022/10/22 04:14:27;;;;;;;12.95;6.88;;;;;;;8.83;78.56;99791.09;30733099;28;96713;-63
2022/10/22 04:29:28;;;;;;;16.73;9.20;;;;;;;8.94;78.34;99766.88;30729974;28;97002;-64
2022/10/22 04:44:28;;;;;;;12.20;8.43;;;;;;;8.86;78.35;99791.59;30729468;28;119836;-63
2022/10/22 04:59:28;;;;;;;12.35;7.55;;;;;;;9.05;78.65;99816.97;30729130;28;113972;-63
2022/10/22 05:14:29;;;;;;;14.77;8.10;;;;;;;9.20;78.27;99802.97;30727776;28;109430;-62
2022/10/22 05:29:29;;;;;;;13.27;7.50;;;;;;;9.13;78.66;99814.28;30732172;28;105407;-63
2022/10/22 05:44:29;;;;;;;14.02;8.10;;;;;;;9.29;78.82;99852.47;30745423;28;96736;-64
2022/10/22 05:59:30;;;;;;;18.88;8.35;;;;;;;9.52;78.85;99883.66;30743983;28;96505;-63
2022/10/22 06:14:31;;;;;;;13.50;8.60;;;;;;;9.85;78.27;99862.25;30743330;28;96692;-62
2022/10/22 06:29:32;;;;;;;14.23;8.47;;;;;;;10.09;78.50;99851.47;30740874;28;97297;-62
2022/10/22 06:44:33;;;;;;;13.07;8.17;;;;;;;10.31;78.64;99871.13;30737610;28;96788;-63
2022/10/22 06:59:34;;;;;;;13.93;9.90;;;;;;;10.40;77.55;99863.94;30740746;28;97300;-63
2022/10/22 07:14:34;;;;;;;18.27;11.48;;;;;;;10.62;78.20;99883.59;30736747;28;113704;-64
2022/10/22 07:29:34;;;;;;;17.67;11.95;;;;;;;11.01;77.84;99893.25;30736244;28;111029;-64
2022/10/22 07:44:34;;;;;;;16.35;9.80;;;;;;;11.22;77.07;99902.41;30733891;28;113255;-63
2022/10/22 07:59:35;;;;;;;17.60;10.07;;;;;;;11.42;76.87;99905.38;30731733;28;121044;-64
2022/10/22 08:14:35;;;;;;;17.67;11.60;;;;;;;11.55;77.16;99911.91;30730515;28;116733;-63
2022/10/22 08:29:35;;;;;;;12.35;9.63;;;;;;;11.76;77.22;99916.53;30729689;28;96621;-64
2022/10/22 08:44:51;;;;;;;18.98;10.57;;;;;;;12.02;76.97;99951.59;30729757;28;96673;-64
2022/10/22 09:00:16;;;;;;;14.90;10.20;;;;;;;12.29;77.79;99937.75;30729352;28;97363;-63
2022/10/22 09:15:17;;;;;;;14.80;10.40;;;;;;;12.74;77.16;99933.09;30747657;28;97020;-62
2022/10/22 09:30:21;;;;;;;22.40;14.43;;;;;;;12.97;77.21;99961.47;30747601;28;97380;-63
2022/10/22 09:45:25;;;;;;;25.43;16.07;;;;;;;13.14;77.15;99960.19;30743739;28;96719;-62
2022/10/22 10:00:27;;;;;;;17.50;11.40;;;;;;;13.31;77.31;99957.22;30745319;28;96519;-63
2022/10/22 10:15:47;;;;;;;22.07;9.67;;;;;;;13.53;77.22;99974.94;30743883;28;96723;-62
2022/10/22 10:31:08;;;;;;;17.20;10.43;;;;;;;13.67;76.67;99951.75;30742682;28;96700;-64
2022/10/22 10:46:15;;;;;;;18.77;10.80;;;;;;;13.85;76.78;99969.16;30738623;28;97775;-63
2022/10/22 11:01:54;;;;;;;21.50;11.23;;;;;;;13.99;75.48;99980.78;30738553;28;97690;-63
2022/10/22 11:17:00;;;;;;;23.43;10.60;;;;;;;14.40;75.91;99950.44;30738557;28;96665;-62
2022/10/22 11:32:01;;;;;;;16.73;10.53;;;;;;;14.77;74.81;99947.50;30735412;28;96783;-63
2022/10/22 11:47:14;;;;;;;14.90;10.23;;;;;;;15.11;74.62;99954.53;30736467;28;96794;-62
2022/10/22 12:02:23;;;;;;;;;;;;;;;15.08;74.64;99957.63;30734358;28;96649;-62
2022/10/22 12:17:24;;;;;;;13.10;8.60;;;;;;;15.43;74.65;99949.34;30734553;28;97388;-63
2022/10/22 12:32:33;;;;;;;10.77;7.30;;;;;;;15.26;74.00;99948.97;30732378;28;97431;-62
2022/10/22 12:47:34;;;;;;;7.83;4.60;;;;;;;15.08;74.08;99941.53;30730311;28;96754;-62
2022/10/22 13:02:34;;;;;;;10.48;5.03;;;;;;;14.68;74.19;99941.47;30729995;28;96738;-63
2022/10/22 13:17:39;;;;;;;10.07;5.80;;;;;;;14.30;74.93;99941.97;30728220;28;96711;-63
2022/10/22 13:32:40;;;;;;;10.60;6.73;;;;;;;13.80;75.49;99950.19;30726698;28;96898;-64
2022/10/22 13:47:44;;;;;;;15.10;7.97;;;;;;;13.67;76.71;99962.47;30728343;28;96688;-64
2022/10/22 14:02:46;;;;;;;12.40;7.73;;;;;;;13.59;77.09;99983.22;30746050;28;96661;-64
2022/10/22 14:17:52;;;;;;;13.27;8.33;;;;;;;13.64;78.00;99978.09;30744564;28;96759;-63
2022/10/22 14:32:52;;;;;;;13.67;8.83;;;;;;;13.71;78.28;99997.72;30744847;28;96871;-63
2022/10/22 14:47:54;;;;;;;13.05;8.77;;;;;;;13.67;78.25;100007.16;30741462;28;96700;-63
2022/10/22 15:02:54;;;;;;;14.73;8.93;;;;;;;13.69;78.66;100015.81;30740087;28;97006;-62
2022/10/22 15:17:55;;;;;;;12.82;9.00;;;;;;;13.67;79.10;100023.22;30737437;28;96756;-63
2022/10/22 15:32:55;;;;;;;11.25;8.00;;;;;;;13.62;79.16;100028.31;30737045;28;120366;-63
2022/10/22 15:47:55;;;;;;;11.60;7.63;;;;;;;13.54;79.73;100053.38;30733647;28;108554;-62
2022/10/22 16:02:56;;;;;;;15.95;10.25;;;;;;;13.51;79.99;100078.66;30734592;28;118380;-63
2022/10/22 16:17:56;;;;;;;13.30;8.60;;;;;;;13.50;80.17;100078.84;30731150;28;117754;-63
2022/10/22 16:32:56;;;;;;;15.75;10.30;;;;;;;13.34;80.45;100102.16;30731643;28;109797;-63
2022/10/22 16:47:56;;;;;;;16.77;11.95;;;;;;;13.38;80.75;100116.00;30730731;28;117905;-64
2022/10/22 17:02:57;;;;;;;17.92;12.00;;;;;;;13.42;80.74;100130.66;30729877;28;97250;-63
2022/10/22 17:18:02;;;;;;;20.70;11.55;;;;;;;13.21;80.86;100150.97;30727018;28;96993;-62
2022/10/22 17:33:04;;;;;;;16.87;11.57;;;;;;;13.09;81.27;100165.84;30744040;28;96862;-63
2022/10/22 17:48:05;;;;;;;16.57;11.57;;;;;;;13.02;81.82;100179.13;30744106;28;96745;-62
2022/10/22 18:03:05;;;;;;;15.75;10.73;;;;;;;13.07;82.02;100200.00;30746735;28;109848;-62
2022/10/22 18:18:05;;;;;;;16.00;10.18;;;;;;;13.11;82.13;100200.44;30744744;28;97071;-62
2022/10/22 18:33:07;;;;;;;12.10;8.55;;;;;;;13.08;82.15;100208.84;30742460;28;97345;-62
2022/10/22 18:48:07;;;;;;;16.60;8.73;;;;;;;13.08;82.05;100207.00;30740902;28;97456;-62
2022/10/22 19:03:08;;;;;;;13.50;8.95;;;;;;;13.00;82.07;100228.50;30739669;28;100516;-63
2022/10/22 19:18:09;;;;;;;16.45;9.70;;;;;;;12.82;81.86;100240.38;30737602;28;96732;-63
2022/10/22 19:33:09;;;;;;;14.23;9.43;;;;;;;12.92;82.33;100253.47;30736379;28;96911;-63
2022/10/22 19:48:10;;;;;;;14.38;9.35;;;;;;;12.75;82.05;100266.16;30735329;28;96656;-64
2022/10/22 20:03:13;;;;;;;11.88;8.52;;;;;;;12.64;81.82;100277.31;30734804;28;110536;-64
2022/10/22 20:18:14;;;;;;;16.67;9.17;;;;;;;12.59;81.69;100296.59;30732638;28;96940;-62
2022/10/22 20:33:15;;;;;;;15.88;9.13;;;;;;;12.51;82.33;100305.50;30730544;28;97396;-63
2022/10/22 20:48:15;;;;;;;13.80;8.55;;;;;;;12.38;82.01;100305.25;30729765;28;96629;-62
2022/10/22 21:03:15;;;;;;;11.65;8.55;;;;;;;12.19;81.81;100307.41;30739715;28;113435;-63
2022/10/22 21:18:16;;;;;;;15.15;8.80;;;;;;;12.05;82.18;100318.03;30751354;28;97928;-63
2022/10/22 21:33:16;;;;;;;13.80;7.70;;;;;;;12.04;82.16;100321.69;30749795;28;112109;-64
2022/10/22 21:48:16;;;;;;;16.42;10.68;;;;;;;12.16;82.25;100329.13;30749223;28;96706;-62
2022/10/22 22:03:17;;;;;;;11.23;8.23;;;;;;;12.42;81.93;100332.47;30748365;28;108761;-63
2022/10/22 22:18:18;;;;;;;10.65;7.90;;;;;;;12.27;81.52;100348.41;30745977;28;103939;-62
2022/10/22 22:33:19;;;;;;;16.67;9.30;;;;;;;11.74;80.78;100350.84;30745068;28;96698;-63
2022/10/22 22:48:19;;;;;;;12.38;7.85;;;;;;;11.33;81.89;100358.03;30743904;28;115582;-64
2022/10/22 23:03:19;;;;;;;12.90;8.80;;;;;;;11.00;81.52;100354.56;30742739;28;117583;-63
2022/10/22 23:18:20;;;;;;;13.93;8.82;;;;;;;10.73;81.77;100363.75;30741065;28;109805;-64
2022/10/22 23:33:20;;;;;;;13.60;8.80;;;;;;;10.56;81.89;100360.28;30739107;28;111326;-64
2022/10/22 23:48:20;;;;;;;12.75;7.15;;;;;;;10.53;82.67;100361.44;30738310;28;96794;-63
